ESST/TYF METAR and TAF weather

Enter ICAO airport designator
Station Type Date Time Source
ESST METAR 2018/12/10 20:50 UTC NOAA

ESST 102050Z AUTO 34009KT 9999 NCD 01/M01 Q1008


Station Type Date Time Source
ESST Decoded METAR 2018/12/10 20:50 UTC NOAA

Station name not available
Dec 10, 2018 - 03:50 PM EST / 2018.12.10 2050 UTC
Wind: from the NNW (340 degrees) at 10 MPH (9 KT):0
Visibility: greater than 7 mile(s):0
Temperature: 33 F (1 C)
Windchill: 24 F (-4 C):1
Dew Point: 30 F (-1 C)
Relative Humidity: 86%
Pressure (altimeter): 29.77 in. Hg (1008 hPa)
ob: ESST 102050Z AUTO 34009KT 9999 NCD 01/M01 Q1008
cycle: 21

Station Type Date Time Source
ESST TAF UTC NOAA

Error!


Example: see airport list